createdAt,value
2023-03-06T00:01:00.709Z,22.50
2023-03-06T00:03:28.774Z,24.90
2023-03-06T00:06:00.438Z,29.00
2023-03-06T00:08:29.401Z,24.60
2023-03-06T00:10:57.955Z,25.00
2023-03-06T00:13:30.087Z,27.70
2023-03-06T00:16:03.070Z,30.70
2023-03-06T00:20:59.178Z,25.50
2023-03-06T00:23:27.606Z,19.70
2023-03-06T00:25:55.634Z,26.50
2023-03-06T00:28:23.703Z,24.30
2023-03-06T00:30:51.669Z,23.20
2023-03-06T00:33:19.654Z,30.70
2023-03-06T00:35:47.582Z,26.00
2023-03-06T00:38:15.865Z,20.80
2023-03-06T00:40:43.992Z,20.00
2023-03-06T00:43:12.636Z,23.70
2023-03-06T00:45:40.617Z,26.80
2023-03-06T00:48:10.828Z,28.30
2023-03-06T00:50:38.814Z,32.30
2023-03-06T00:53:06.838Z,30.60
2023-03-06T00:55:34.783Z,23.10
2023-03-06T00:58:02.705Z,24.00
2023-03-06T01:00:30.640Z,25.30
2023-03-06T01:02:58.644Z,23.90
2023-03-06T01:05:26.719Z,30.40
2023-03-06T01:07:54.783Z,21.80
2023-03-06T01:10:23.195Z,20.90
2023-03-06T01:12:51.165Z,25.10
2023-03-06T01:15:20.382Z,23.40
2023-03-06T01:17:53.004Z,23.70
2023-03-06T01:20:21.765Z,20.10
2023-03-06T01:22:49.691Z,29.40
2023-03-06T01:25:17.747Z,19.30
2023-03-06T01:27:45.611Z,24.10
2023-03-06T01:30:13.782Z,20.00
2023-03-06T01:32:41.891Z,24.40
2023-03-06T01:35:10.439Z,22.10
2023-03-06T01:37:41.041Z,26.20
2023-03-06T01:40:13.035Z,26.00
2023-03-06T01:42:42.561Z,23.50
2023-03-06T01:45:13.271Z,23.70
2023-03-06T01:47:41.304Z,19.40
2023-03-06T01:50:11.747Z,17.10
2023-03-06T01:53:00.838Z,21.80
2023-03-06T01:55:35.095Z,22.70
2023-03-06T01:58:15.997Z,22.20
2023-03-06T02:00:44.356Z,24.70
2023-03-06T02:03:26.472Z,24.80
2023-03-06T02:05:55.918Z,22.90
2023-03-06T02:08:26.398Z,26.20
2023-03-06T02:11:14.589Z,27.30
2023-03-06T02:13:44.923Z,34.60
2023-03-06T02:16:17.072Z,31.50
2023-03-06T02:18:47.218Z,28.40
2023-03-06T02:21:28.872Z,28.90
2023-03-06T02:24:44.935Z,26.90
2023-03-06T02:27:14.864Z,27.90
2023-03-06T02:29:43.965Z,41.80
2023-03-06T02:32:12.951Z,36.20
2023-03-06T02:34:40.846Z,33.20
2023-03-06T02:37:11.308Z,32.60
2023-03-06T02:39:48.865Z,33.50
2023-03-06T02:42:28.879Z,30.60
2023-03-06T02:45:01.012Z,37.60
2023-03-06T02:47:29.417Z,29.90
2023-03-06T02:49:57.285Z,25.40
2023-03-06T02:52:25.399Z,33.10
2023-03-06T02:54:53.316Z,38.30
2023-03-06T02:57:21.521Z,35.50
2023-03-06T02:59:49.992Z,30.70
2023-03-06T03:02:17.945Z,34.10
2023-03-06T03:04:45.938Z,27.80
2023-03-06T03:07:13.999Z,34.30
2023-03-06T03:09:42.163Z,35.20
2023-03-06T03:12:10.641Z,29.40
2023-03-06T03:14:39.810Z,27.20
2023-03-06T03:17:08.729Z,24.10
2023-03-06T03:19:36.639Z,27.20
2023-03-06T03:22:04.593Z,29.50
2023-03-06T03:24:33.011Z,30.50
2023-03-06T03:27:01.936Z,30.00
2023-03-06T03:29:30.273Z,27.70
2023-03-06T03:31:58.180Z,27.80
2023-03-06T03:34:26.685Z,27.50
2023-03-06T03:36:55.468Z,27.40
2023-03-06T03:39:23.557Z,24.60
2023-03-06T03:41:52.382Z,27.90
2023-03-06T03:44:21.178Z,22.80
2023-03-06T03:46:49.743Z,22.30
2023-03-06T03:49:20.934Z,22.60
2023-03-06T03:51:49.446Z,26.20
2023-03-06T03:54:18.385Z,28.80
2023-03-06T03:56:47.544Z,28.80
2023-03-06T03:59:20.893Z,23.80
2023-03-06T04:02:04.909Z,26.90
2023-03-06T04:04:36.139Z,20.40
2023-03-06T04:07:04.452Z,23.20
2023-03-06T04:09:32.616Z,21.10
2023-03-06T04:12:01.071Z,25.40
2023-03-06T04:14:30.454Z,30.10
2023-03-06T04:16:58.731Z,21.10
2023-03-06T04:19:27.203Z,20.30
2023-03-06T04:21:55.178Z,19.70
2023-03-06T04:24:23.267Z,18.10
2023-03-06T04:26:51.270Z,25.30
2023-03-06T04:29:19.267Z,18.60
2023-03-06T04:31:47.395Z,29.40
2023-03-06T04:34:15.850Z,20.80
2023-03-06T04:36:46.664Z,22.40
2023-03-06T04:39:15.117Z,23.90
2023-03-06T04:41:43.378Z,16.00
2023-03-06T04:44:11.773Z,21.90
2023-03-06T04:46:39.720Z,21.10
2023-03-06T04:49:07.704Z,23.70
2023-03-06T04:51:38.742Z,22.80
2023-03-06T04:54:06.629Z,19.30
2023-03-06T04:56:34.573Z,21.30
2023-03-06T04:59:04.239Z,19.90
2023-03-06T05:01:32.160Z,14.90
2023-03-06T05:04:00.154Z,18.40
2023-03-06T05:06:29.735Z,15.40
2023-03-06T05:08:57.762Z,16.10
2023-03-06T05:11:25.700Z,14.70
2023-03-06T05:13:53.560Z,10.60
2023-03-06T05:16:21.664Z,11.00
2023-03-06T05:18:50.758Z,9.90
2023-03-06T05:21:18.904Z,13.60
2023-03-06T05:23:50.204Z,35.50
2023-03-06T05:26:18.095Z,9.70
2023-03-06T05:28:46.046Z,11.30
2023-03-06T05:31:13.993Z,8.90
2023-03-06T05:33:42.074Z,11.80
2023-03-06T05:36:10.429Z,5.90
2023-03-06T05:38:38.317Z,9.70
2023-03-06T05:41:06.448Z,8.80
2023-03-06T05:43:34.435Z,5.70
2023-03-06T05:46:08.057Z,6.90
2023-03-06T05:48:37.612Z,5.00
2023-03-06T05:51:06.501Z,5.20
2023-03-06T05:53:34.643Z,4.60
2023-03-06T05:56:09.091Z,4.30
2023-03-06T05:58:37.621Z,5.20
2023-03-06T06:01:15.846Z,6.70
2023-03-06T06:03:44.592Z,12.80
2023-03-06T06:06:15.078Z,5.20
2023-03-06T06:08:43.363Z,3.10
2023-03-06T06:11:14.476Z,6.90
2023-03-06T06:13:42.413Z,7.10
2023-03-06T06:16:13.352Z,4.00
2023-03-06T06:18:41.641Z,6.40
2023-03-06T06:21:14.384Z,1.50
2023-03-06T06:23:42.742Z,4.30
2023-03-06T06:26:11.096Z,6.10
2023-03-06T06:28:39.062Z,4.00
2023-03-06T06:31:14.241Z,2.20
2023-03-06T06:33:43.166Z,3.90
2023-03-06T06:36:21.699Z,3.40
2023-03-06T06:38:50.068Z,2.10
2023-03-06T06:41:53.029Z,3.50
2023-03-06T06:44:08.938Z,5.20
2023-03-06T06:49:26.380Z,4.70
2023-03-06T06:51:54.250Z,3.50
2023-03-06T06:54:22.281Z,5.30
2023-03-06T06:56:50.720Z,4.80
2023-03-06T06:59:19.243Z,8.20
2023-03-06T07:01:47.218Z,2.90
2023-03-06T07:04:16.776Z,4.60
2023-03-06T07:06:45.354Z,5.60
2023-03-06T07:09:14.133Z,5.80
2023-03-06T07:11:42.218Z,4.70
2023-03-06T07:14:10.277Z,5.20
2023-03-06T07:16:38.208Z,3.50
2023-03-06T07:19:07.926Z,5.20
2023-03-06T07:21:35.848Z,7.50
2023-03-06T07:24:04.731Z,5.30
2023-03-06T07:26:34.672Z,9.00
2023-03-06T07:29:04.990Z,9.30
2023-03-06T07:31:33.019Z,8.80
2023-03-06T07:34:03.146Z,6.60
2023-03-06T07:36:34.671Z,5.00
2023-03-06T07:39:02.772Z,11.10
2023-03-06T07:41:30.795Z,9.40
2023-03-06T07:43:59.130Z,12.10
2023-03-06T07:46:34.293Z,10.40
2023-03-06T07:49:02.324Z,5.50
2023-03-06T07:51:30.353Z,8.10
2023-03-06T07:53:58.311Z,7.10
2023-03-06T07:56:26.633Z,3.70
2023-03-06T07:58:56.107Z,4.80
2023-03-06T08:01:27.950Z,5.30
2023-03-06T08:03:56.782Z,4.00
2023-03-06T08:06:27.134Z,2.30
2023-03-06T08:08:56.476Z,4.20
2023-03-06T08:11:28.546Z,1.30
2023-03-06T08:13:57.991Z,2.40
2023-03-06T08:16:29.681Z,4.90
2023-03-06T08:18:59.441Z,4.90
2023-03-06T08:21:28.810Z,6.30
2023-03-06T08:23:56.906Z,9.50
2023-03-06T08:26:28.737Z,5.50
2023-03-06T08:29:01.245Z,5.40
2023-03-06T08:31:33.337Z,7.40
2023-03-06T08:34:14.936Z,8.20
2023-03-06T08:36:43.569Z,7.10
2023-03-06T08:39:12.982Z,7.50
2023-03-06T08:41:42.169Z,7.00
2023-03-06T08:44:11.628Z,6.00
2023-03-06T08:46:40.665Z,5.90
2023-03-06T08:49:12.090Z,5.70
2023-03-06T08:51:40.112Z,4.40
2023-03-06T08:54:10.489Z,7.50
2023-03-06T08:56:38.656Z,4.80
2023-03-06T08:59:09.294Z,7.30
2023-03-06T09:01:38.674Z,7.20
2023-03-06T09:04:10.688Z,6.10
2023-03-06T09:06:42.727Z,7.00
2023-03-06T09:09:12.245Z,11.90
2023-03-06T09:11:40.194Z,6.40
2023-03-06T09:14:08.625Z,9.40
2023-03-06T09:16:36.687Z,3.80
2023-03-06T09:19:04.843Z,6.70
2023-03-06T09:21:33.107Z,11.40
2023-03-06T09:24:01.058Z,9.50
2023-03-06T09:26:43.367Z,7.90
2023-03-06T09:29:13.532Z,7.40
2023-03-06T09:31:41.609Z,12.00
2023-03-06T09:34:09.609Z,8.00
2023-03-06T09:36:54.925Z,9.60
2023-03-06T09:39:27.122Z,17.90
2023-03-06T09:41:58.460Z,15.00
2023-03-06T09:44:30.964Z,14.20
2023-03-06T09:47:56.507Z,13.20
2023-03-06T09:50:39.908Z,14.30
2023-03-06T09:53:44.245Z,11.50
2023-03-06T09:56:21.911Z,12.70
2023-03-06T09:58:55.918Z,13.60
2023-03-06T10:01:30.285Z,11.30
2023-03-06T10:04:19.582Z,16.00
2023-03-06T10:06:51.711Z,10.00
2023-03-06T10:09:34.841Z,18.30
2023-03-06T10:15:15.879Z,17.10
2023-03-06T10:17:45.255Z,15.90
2023-03-06T10:20:22.347Z,15.20
2023-03-06T10:23:29.373Z,22.40
2023-03-06T10:26:01.631Z,17.00
2023-03-06T10:29:00.106Z,17.20
2023-03-06T10:31:29.641Z,20.00
2023-03-06T10:34:43.045Z,21.70
2023-03-06T10:37:22.581Z,22.70
2023-03-06T10:40:12.967Z,19.80
2023-03-06T10:42:41.058Z,22.30
2023-03-06T10:45:17.193Z,23.40
2023-03-06T10:47:46.099Z,19.70
2023-03-06T10:50:30.662Z,27.80
2023-03-06T10:53:06.190Z,23.30
2023-03-06T10:55:37.849Z,24.50
2023-03-06T10:58:28.529Z,28.20
2023-03-06T11:01:19.095Z,27.00
2023-03-06T11:03:47.936Z,35.60
2023-03-06T11:06:36.752Z,28.00
2023-03-06T11:09:25.752Z,26.80
2023-03-06T11:12:19.368Z,23.00
2023-03-06T11:14:47.409Z,23.00
2023-03-06T11:17:32.118Z,21.20
2023-03-06T11:20:52.558Z,26.80
2023-03-06T11:23:36.757Z,20.20
2023-03-06T11:26:17.543Z,16.90
2023-03-06T11:29:06.693Z,21.90
2023-03-06T11:31:48.024Z,19.90
2023-03-06T11:34:38.925Z,21.20
2023-03-06T11:37:33.542Z,20.30
2023-03-06T11:40:10.530Z,10.90
2023-03-06T11:43:02.944Z,18.20
2023-03-06T11:45:44.920Z,20.00
2023-03-06T11:48:16.566Z,18.50
2023-03-06T11:50:51.546Z,17.70
2023-03-06T11:53:38.508Z,17.30
2023-03-06T11:56:23.836Z,20.00
2023-03-06T11:59:11.014Z,14.70
2023-03-06T12:02:29.290Z,13.40
2023-03-06T12:05:36.182Z,15.30
2023-03-06T12:08:42.954Z,15.40
2023-03-06T12:11:37.344Z,16.70
2023-03-06T12:14:34.710Z,15.80
2023-03-06T12:17:15.608Z,18.90
2023-03-06T12:20:30.746Z,22.00
2023-03-06T12:23:18.306Z,15.00
2023-03-06T12:26:16.210Z,22.80
2023-03-06T12:29:28.012Z,15.40
2023-03-06T12:32:32.553Z,12.70
2023-03-06T12:35:27.507Z,17.40
2023-03-06T12:38:32.723Z,19.70
2023-03-06T12:41:33.481Z,10.30
2023-03-06T12:44:27.398Z,11.80
2023-03-06T12:47:03.029Z,11.50
2023-03-06T12:49:38.610Z,8.80
2023-03-06T12:52:09.820Z,12.40
2023-03-06T12:54:41.046Z,10.40
2023-03-06T12:57:09.825Z,11.10
2023-03-06T12:59:39.178Z,10.10
2023-03-06T13:02:40.687Z,10.70
2023-03-06T13:05:14.726Z,10.60
2023-03-06T13:08:23.678Z,8.20
2023-03-06T13:11:26.565Z,10.50
2023-03-06T13:13:56.424Z,12.20
2023-03-06T13:16:31.146Z,9.60
2023-03-06T13:19:12.596Z,7.60
2023-03-06T13:21:56.114Z,9.60
2023-03-06T13:24:31.476Z,12.30
2023-03-06T13:27:11.224Z,10.20
2023-03-06T13:29:39.131Z,11.10
2023-03-06T13:32:18.963Z,13.10
2023-03-06T13:34:50.138Z,10.70
2023-03-06T13:37:23.073Z,13.70
2023-03-06T13:42:38.035Z,9.50
2023-03-06T13:45:07.980Z,9.20
2023-03-06T13:48:19.520Z,13.80
2023-03-06T13:50:47.924Z,10.80
2023-03-06T13:54:08.323Z,10.30
2023-03-06T13:57:11.721Z,9.90
2023-03-06T14:00:59.963Z,7.40
2023-03-06T14:03:51.580Z,10.90
2023-03-06T14:06:34.535Z,9.80
2023-03-06T14:09:16.430Z,9.40
2023-03-06T14:11:53.062Z,8.30
2023-03-06T14:14:34.686Z,11.30
2023-03-06T14:17:05.260Z,10.40
2023-03-06T14:19:38.472Z,9.30
2023-03-06T14:22:13.044Z,11.50
2023-03-06T14:24:53.404Z,12.30
2023-03-06T14:27:36.958Z,9.70
2023-03-06T14:30:07.685Z,10.80
2023-03-06T14:32:39.876Z,8.50
2023-03-06T14:35:29.988Z,10.50
2023-03-06T14:38:03.972Z,13.80
2023-03-06T14:40:37.038Z,10.40
2023-03-06T14:43:25.325Z,10.30
2023-03-06T14:46:06.495Z,12.50
2023-03-06T14:48:45.379Z,13.00
2023-03-06T14:51:24.661Z,12.40
2023-03-06T14:53:55.905Z,10.50
2023-03-06T14:56:27.291Z,13.60
2023-03-06T14:59:14.166Z,9.20
2023-03-06T15:01:52.390Z,12.30
2023-03-06T15:04:26.513Z,8.90
2023-03-06T15:06:58.824Z,7.70
2023-03-06T15:09:36.667Z,9.70
2023-03-06T15:12:30.316Z,7.90
2023-03-06T15:15:04.538Z,13.20
2023-03-06T15:17:43.515Z,8.80
2023-03-06T15:20:53.624Z,9.90
2023-03-06T15:23:36.680Z,10.20
2023-03-06T15:26:33.861Z,8.80
2023-03-06T15:29:13.500Z,8.60
2023-03-06T15:31:45.826Z,9.50
2023-03-06T15:34:23.577Z,11.00
2023-03-06T15:36:57.640Z,11.70
2023-03-06T15:39:40.549Z,9.30
2023-03-06T15:42:19.098Z,10.20
2023-03-06T15:44:54.492Z,11.70
2023-03-06T15:47:23.480Z,9.40
2023-03-06T15:49:57.587Z,10.60
2023-03-06T15:52:25.691Z,8.70
2023-03-06T15:54:53.712Z,9.80
2023-03-06T15:57:25.993Z,10.70
2023-03-06T15:59:56.274Z,13.90
2023-03-06T16:02:24.485Z,14.70
2023-03-06T16:04:53.490Z,12.80
2023-03-06T16:07:21.490Z,13.30
2023-03-06T16:09:49.541Z,9.40
2023-03-06T16:12:22.714Z,8.80
2023-03-06T16:14:50.670Z,13.70
2023-03-06T16:17:18.706Z,14.20
2023-03-06T16:19:46.680Z,13.10
2023-03-06T16:22:14.579Z,10.80
2023-03-06T16:24:43.178Z,13.00
2023-03-06T16:27:19.857Z,13.70
2023-03-06T16:29:53.154Z,12.40
2023-03-06T16:32:28.666Z,11.70
2023-03-06T16:34:56.860Z,13.30
2023-03-06T16:37:24.825Z,12.30
2023-03-06T16:39:53.942Z,13.80
2023-03-06T16:42:23.138Z,11.60
2023-03-06T16:44:51.335Z,13.50
2023-03-06T16:47:19.319Z,15.60
2023-03-06T16:49:47.250Z,16.10
2023-03-06T16:52:15.488Z,15.70
2023-03-06T16:54:44.691Z,15.90
2023-03-06T16:57:15.006Z,17.10
2023-03-06T16:59:42.901Z,10.70
2023-03-06T17:02:12.455Z,16.60
2023-03-06T17:04:40.470Z,12.70
2023-03-06T17:07:08.737Z,13.40
2023-03-06T17:09:36.836Z,16.20
2023-03-06T17:12:05.062Z,14.70
2023-03-06T17:14:34.049Z,11.80
2023-03-06T17:17:02.034Z,14.70
2023-03-06T17:19:30.762Z,16.90
2023-03-06T17:21:58.978Z,12.90
2023-03-06T17:24:27.436Z,13.50
2023-03-06T17:26:56.192Z,13.60
2023-03-06T17:29:25.090Z,12.50
2023-03-06T17:31:53.028Z,15.20
2023-03-06T17:34:23.046Z,15.70
2023-03-06T17:36:53.114Z,14.70
2023-03-06T17:39:21.037Z,21.20
2023-03-06T17:41:50.179Z,16.00
2023-03-06T17:44:19.727Z,16.50
2023-03-06T17:46:49.983Z,18.80
2023-03-06T17:49:21.040Z,24.50
2023-03-06T17:51:49.693Z,24.40
2023-03-06T17:54:19.809Z,22.80
2023-03-06T17:56:48.295Z,25.40
2023-03-06T17:59:16.677Z,30.50
2023-03-06T18:01:46.048Z,26.70
2023-03-06T18:04:14.355Z,26.20
2023-03-06T18:06:42.375Z,29.70
2023-03-06T18:09:10.449Z,28.60
2023-03-06T18:11:38.650Z,29.60
2023-03-06T18:14:07.011Z,32.60
2023-03-06T18:16:35.648Z,29.40
2023-03-06T18:19:03.897Z,32.30
2023-03-06T18:21:32.000Z,33.70
2023-03-06T18:24:00.220Z,32.00
2023-03-06T18:26:29.954Z,33.90
2023-03-06T18:29:03.533Z,32.20
2023-03-06T18:31:39.303Z,31.80
2023-03-06T18:34:14.647Z,28.90
2023-03-06T18:36:44.250Z,28.20
2023-03-06T18:39:14.185Z,32.20
2023-03-06T18:41:42.380Z,27.40
2023-03-06T18:44:17.482Z,30.90
2023-03-06T18:46:45.598Z,29.40
2023-03-06T18:49:16.434Z,30.40
2023-03-06T18:51:44.909Z,28.60
2023-03-06T18:54:12.904Z,30.00
2023-03-06T18:56:44.616Z,30.40
2023-03-06T18:59:19.413Z,29.50
2023-03-06T19:01:48.198Z,31.60
2023-03-06T19:04:16.627Z,37.10
2023-03-06T19:06:44.970Z,31.30
2023-03-06T19:09:13.320Z,32.10
2023-03-06T19:11:42.657Z,37.30
2023-03-06T19:14:11.003Z,86.50
2023-03-06T19:16:39.075Z,113.00
2023-03-06T19:19:07.399Z,142.70
2023-03-06T19:21:35.341Z,39.40
2023-03-06T19:24:04.251Z,35.00
2023-03-06T19:26:32.688Z,33.30
2023-03-06T19:29:01.336Z,58.70
2023-03-06T19:31:29.611Z,58.80
2023-03-06T19:33:57.738Z,59.30
2023-03-06T19:36:33.490Z,60.60
2023-03-06T19:39:06.063Z,58.90
2023-03-06T19:41:34.695Z,62.00
2023-03-06T19:44:03.393Z,57.80
2023-03-06T19:46:32.354Z,46.00
2023-03-06T19:49:03.050Z,51.80
2023-03-06T19:51:32.992Z,53.00
2023-03-06T19:54:03.944Z,67.50
2023-03-06T19:56:33.666Z,57.00
2023-03-06T19:59:01.632Z,63.70
2023-03-06T20:01:29.734Z,60.30
2023-03-06T20:03:59.657Z,52.70
2023-03-06T20:06:33.707Z,60.40
2023-03-06T20:09:10.015Z,45.70
2023-03-06T20:11:40.167Z,49.40
2023-03-06T20:14:09.126Z,47.50
2023-03-06T20:16:39.600Z,58.50
2023-03-06T20:19:08.558Z,89.30
2023-03-06T20:21:37.695Z,45.90
2023-03-06T20:24:08.396Z,52.50
2023-03-06T20:26:38.000Z,46.40
2023-03-06T20:29:05.980Z,51.10
2023-03-06T20:31:34.080Z,50.00
2023-03-06T20:34:03.754Z,54.50
2023-03-06T20:36:40.094Z,56.00
2023-03-06T20:39:12.871Z,55.70
2023-03-06T20:44:14.158Z,227.00
2023-03-06T20:46:42.274Z,140.80
2023-03-06T20:49:14.163Z,98.70
2023-03-06T20:51:42.359Z,88.20
2023-03-06T20:54:14.211Z,76.40
2023-03-06T20:56:48.982Z,63.80
2023-03-06T20:59:17.473Z,62.30
2023-03-06T21:01:47.859Z,82.30
2023-03-06T21:04:16.467Z,77.10
2023-03-06T21:06:47.040Z,83.90
2023-03-06T21:09:16.917Z,72.40
2023-03-06T21:11:46.104Z,69.60
2023-03-06T21:14:15.096Z,70.30
2023-03-06T21:16:43.377Z,72.20
2023-03-06T21:19:11.413Z,63.50
2023-03-06T21:21:39.483Z,63.20
2023-03-06T21:24:08.060Z,67.00
2023-03-06T21:26:36.280Z,52.20
2023-03-06T21:29:04.991Z,62.10
2023-03-06T21:31:34.129Z,58.60
2023-03-06T21:34:04.859Z,61.90
2023-03-06T21:36:33.878Z,50.60
2023-03-06T21:39:04.197Z,61.50
2023-03-06T21:41:33.168Z,57.80
2023-03-06T21:44:07.609Z,60.80
2023-03-06T21:46:36.142Z,51.50
2023-03-06T21:49:05.305Z,61.50
2023-03-06T21:51:34.509Z,61.20
2023-03-06T21:54:03.874Z,58.50
2023-03-06T21:56:33.304Z,55.90
2023-03-06T21:59:01.411Z,58.70
2023-03-06T22:01:30.196Z,58.90
2023-03-06T22:03:59.754Z,54.60
2023-03-06T22:06:32.160Z,61.30
2023-03-06T22:09:01.513Z,60.20
2023-03-06T22:11:37.232Z,59.40
2023-03-06T22:14:08.186Z,72.10
2023-03-06T22:16:36.181Z,63.80
2023-03-06T22:19:04.226Z,65.40
2023-03-06T22:21:32.198Z,56.60
2023-03-06T22:24:00.236Z,59.30
2023-03-06T22:26:29.501Z,278.40
2023-03-06T22:28:57.504Z,138.30
2023-03-06T22:31:28.576Z,100.20
2023-03-06T22:34:00.434Z,79.20
2023-03-06T22:36:30.758Z,138.20
2023-03-06T22:39:01.809Z,137.00
2023-03-06T22:41:31.042Z,65.00
2023-03-06T22:44:01.898Z,77.50
2023-03-06T22:46:30.899Z,67.10
2023-03-06T22:49:00.885Z,65.70
2023-03-06T22:51:29.691Z,70.10
2023-03-06T22:53:58.120Z,65.00
2023-03-06T22:56:26.222Z,67.20
2023-03-06T22:58:54.755Z,92.50
2023-03-06T23:01:26.223Z,129.10
2023-03-06T23:03:59.195Z,74.70
2023-03-06T23:06:31.277Z,66.10
2023-03-06T23:09:12.318Z,59.20
2023-03-06T23:11:59.067Z,52.20
2023-03-06T23:14:50.940Z,62.00
2023-03-06T23:17:37.676Z,62.80
2023-03-06T23:20:24.371Z,66.10
2023-03-06T23:23:11.287Z,63.50
2023-03-06T23:25:43.609Z,54.10
2023-03-06T23:28:11.996Z,74.40
2023-03-06T23:30:41.071Z,45.60
2023-03-06T23:33:09.716Z,99.90
2023-03-06T23:35:39.024Z,43.30
2023-03-06T23:38:07.246Z,57.80
2023-03-06T23:40:35.655Z,143.00
2023-03-06T23:43:04.244Z,273.40
2023-03-06T23:45:32.689Z,91.90
2023-03-06T23:48:00.719Z,63.50
2023-03-06T23:50:28.608Z,73.20
2023-03-06T23:52:56.548Z,66.10
2023-03-06T23:55:26.179Z,63.50
2023-03-06T23:57:54.306Z,69.40
